createdAt,value
2018-12-17T00:00:12.266Z,1006.99
2018-12-17T00:01:12.302Z,1006.99
2018-12-17T00:02:12.255Z,1006.96
2018-12-17T00:03:12.337Z,1006.99
2018-12-17T00:04:12.256Z,1006.99
2018-12-17T00:05:12.222Z,1006.98
2018-12-17T00:06:12.255Z,1006.98
2018-12-17T00:07:12.193Z,1006.96
2018-12-17T00:08:12.260Z,1007.01
2018-12-17T00:09:12.224Z,1007.05
2018-12-17T00:10:12.171Z,1007.03
2018-12-17T00:11:12.165Z,1007.05
2018-12-17T00:12:16.507Z,1007.02
2018-12-17T00:13:12.117Z,1007.06
2018-12-17T00:14:12.131Z,1007.04
2018-12-17T00:15:12.113Z,1007.05
2018-12-17T00:16:12.091Z,1007.04
2018-12-17T00:17:12.109Z,1007.03
2018-12-17T00:18:12.068Z,1007.08
2018-12-17T00:19:12.051Z,1007.08
2018-12-17T00:20:12.046Z,1007.06
2018-12-17T00:21:12.031Z,1007.10
2018-12-17T00:22:12.052Z,1007.09
2018-12-17T00:23:12.011Z,1007.07
2018-12-17T00:24:11.996Z,1007.08
2018-12-17T00:25:11.989Z,1007.06
2018-12-17T00:26:11.980Z,1007.04
2018-12-17T00:27:11.995Z,1007.13
2018-12-17T00:28:11.954Z,1007.12
2018-12-17T00:29:11.941Z,1007.11
2018-12-17T00:30:11.933Z,1007.10
2018-12-17T00:31:11.922Z,1007.11
2018-12-17T00:32:11.939Z,1007.09
2018-12-17T00:33:11.902Z,1007.10
2018-12-17T00:34:11.927Z,1007.17
2018-12-17T00:35:11.887Z,1007.17
2018-12-17T00:36:11.874Z,1007.13
2018-12-17T00:37:11.897Z,1007.18
2018-12-17T00:38:11.843Z,1007.18
2018-12-17T00:39:11.833Z,1007.17
2018-12-17T00:40:11.824Z,1007.17
2018-12-17T00:41:11.816Z,1007.18
2018-12-17T00:42:11.807Z,1007.19
2018-12-17T00:43:11.823Z,1007.18
2018-12-17T00:44:11.788Z,1007.16
2018-12-17T00:45:11.770Z,1007.14
2018-12-17T00:46:11.759Z,1007.19
2018-12-17T00:47:11.743Z,1007.20
2018-12-17T00:48:11.759Z,1007.19
2018-12-17T00:49:11.720Z,1007.21
2018-12-17T00:50:11.709Z,1007.26
2018-12-17T00:51:11.719Z,1007.23
2018-12-17T00:52:11.693Z,1007.20
2018-12-17T00:53:11.706Z,1007.21
2018-12-17T00:54:11.672Z,1007.22
2018-12-17T00:55:11.660Z,1007.23
2018-12-17T00:56:11.659Z,1007.23
2018-12-17T00:57:11.634Z,1007.26
2018-12-17T00:58:15.097Z,1007.25
2018-12-17T00:59:11.617Z,1007.30
2018-12-17T01:00:11.602Z,1007.30
2018-12-17T01:01:11.596Z,1007.33
2018-12-17T01:02:11.576Z,1007.34
2018-12-17T01:03:11.589Z,1007.35
2018-12-17T01:04:11.565Z,1007.38
2018-12-17T01:05:11.570Z,1007.36
2018-12-17T01:06:11.538Z,1007.38
2018-12-17T01:07:11.533Z,1007.38
2018-12-17T01:08:11.550Z,1007.38
2018-12-17T01:09:11.512Z,1007.37
2018-12-17T01:10:11.527Z,1007.39
2018-12-17T01:11:11.482Z,1007.38
2018-12-17T01:12:11.470Z,1007.42
2018-12-17T01:13:11.484Z,1007.42
2018-12-17T01:14:11.446Z,1007.43
2018-12-17T01:15:11.440Z,1007.41
2018-12-17T01:16:11.429Z,1007.39
2018-12-17T01:17:11.421Z,1007.42
2018-12-17T01:18:11.436Z,1007.38
2018-12-17T01:19:11.394Z,1007.38
2018-12-17T01:20:11.409Z,1007.43
2018-12-17T01:21:11.373Z,1007.40
2018-12-17T01:22:11.357Z,1007.42
2018-12-17T01:23:11.349Z,1007.42
2018-12-17T01:24:11.337Z,1007.42
2018-12-17T01:25:11.411Z,1007.41
2018-12-17T01:26:11.320Z,1007.39
2018-12-17T01:27:11.316Z,1007.43
2018-12-17T01:28:11.296Z,1007.40
2018-12-17T01:29:11.327Z,1007.37
2018-12-17T01:30:11.307Z,1007.37
2018-12-17T01:31:11.403Z,1007.43
2018-12-17T01:32:11.248Z,1007.42
2018-12-17T01:33:11.253Z,1007.45
2018-12-17T01:34:11.232Z,1007.46
2018-12-17T01:35:11.218Z,1007.49
2018-12-17T01:36:11.244Z,1007.44
2018-12-17T01:37:11.208Z,1007.48
2018-12-17T01:38:11.183Z,1007.52
2018-12-17T01:39:11.180Z,1007.47
2018-12-17T01:40:11.165Z,1007.49
2018-12-17T01:41:11.275Z,1007.51
2018-12-17T01:42:11.142Z,1007.52
2018-12-17T01:43:11.134Z,1007.48
2018-12-17T01:45:12.265Z,1007.48
2018-12-17T01:46:11.102Z,1007.53
2018-12-17T01:47:11.088Z,1007.51
2018-12-17T01:48:11.098Z,1007.52
2018-12-17T01:49:11.073Z,1007.53
2018-12-17T01:50:11.178Z,1007.53
2018-12-17T01:51:11.044Z,1007.51
2018-12-17T01:52:11.031Z,1007.49
2018-12-17T01:53:11.020Z,1007.53
2018-12-17T01:54:11.034Z,1007.48
2018-12-17T01:55:11.041Z,1007.47
2018-12-17T01:56:11.046Z,1007.47
2018-12-17T01:57:11.059Z,1007.48
2018-12-17T01:58:10.977Z,1007.48
2018-12-17T01:59:10.952Z,1007.47
2018-12-17T02:00:10.954Z,1007.49
2018-12-17T02:01:10.976Z,1007.48
2018-12-17T02:02:10.921Z,1007.49
2018-12-17T02:03:10.915Z,1007.47
2018-12-17T02:04:10.974Z,1007.44
2018-12-17T02:05:10.917Z,1007.46
2018-12-17T02:06:10.920Z,1007.42
2018-12-17T02:07:10.875Z,1007.44
2018-12-17T02:08:10.882Z,1007.44
2018-12-17T02:09:10.877Z,1007.49
2018-12-17T02:10:10.840Z,1007.44
2018-12-17T02:11:10.852Z,1007.49
2018-12-17T02:12:10.822Z,1007.46
2018-12-17T02:13:10.835Z,1007.51
2018-12-17T02:14:10.810Z,1007.52
2018-12-17T02:15:10.789Z,1007.45
2018-12-17T02:16:10.795Z,1007.46
2018-12-17T02:17:10.791Z,1007.46
2018-12-17T02:18:10.744Z,1007.49
2018-12-17T02:19:10.744Z,1007.48
2018-12-17T02:20:10.734Z,1007.49
2018-12-17T02:21:10.740Z,1007.50
2018-12-17T02:22:10.699Z,1007.49
2018-12-17T02:23:10.686Z,1007.49
2018-12-17T02:24:10.685Z,1007.47
2018-12-17T02:25:10.677Z,1007.49
2018-12-17T02:26:10.700Z,1007.49
2018-12-17T02:27:10.645Z,1007.50
2018-12-17T02:28:10.682Z,1007.51
2018-12-17T02:29:10.631Z,1007.45
2018-12-17T02:30:10.620Z,1007.44
2018-12-17T02:31:10.606Z,1007.46
2018-12-17T02:32:10.634Z,1007.43
2018-12-17T02:33:10.581Z,1007.42
2018-12-17T02:34:10.595Z,1007.40
2018-12-17T02:35:10.564Z,1007.40
2018-12-17T02:36:10.585Z,1007.40
2018-12-17T02:37:10.562Z,1007.41
2018-12-17T02:38:10.562Z,1007.45
2018-12-17T02:39:10.512Z,1007.43
2018-12-17T02:40:10.510Z,1007.45
2018-12-17T02:41:10.501Z,1007.45
2018-12-17T02:42:10.530Z,1007.48
2018-12-17T02:43:10.495Z,1007.50
2018-12-17T02:44:10.483Z,1007.49
2018-12-17T02:45:10.451Z,1007.46
2018-12-17T02:46:10.443Z,1007.46
2018-12-17T02:47:10.452Z,1007.49
2018-12-17T02:48:10.426Z,1007.48
2018-12-17T02:49:10.409Z,1007.50
2018-12-17T02:50:10.393Z,1007.51
2018-12-17T02:51:10.388Z,1007.51
2018-12-17T02:52:10.415Z,1007.52
2018-12-17T02:53:10.392Z,1007.49
2018-12-17T02:54:10.355Z,1007.47
2018-12-17T02:55:10.356Z,1007.49
2018-12-17T02:56:10.336Z,1007.52
2018-12-17T02:57:10.351Z,1007.51
2018-12-17T02:58:10.310Z,1007.52
2018-12-17T02:59:10.291Z,1007.51
2018-12-17T03:00:10.308Z,1007.54
2018-12-17T03:01:10.281Z,1007.55
2018-12-17T03:02:10.291Z,1007.57
2018-12-17T03:03:10.283Z,1007.55
2018-12-17T03:04:10.244Z,1007.57
2018-12-17T03:05:10.233Z,1007.53
2018-12-17T03:06:10.219Z,1007.55
2018-12-17T03:07:10.209Z,1007.56
2018-12-17T03:08:10.196Z,1007.57
2018-12-17T03:09:10.241Z,1007.55
2018-12-17T03:10:10.170Z,1007.54
2018-12-17T03:11:10.159Z,1007.54
2018-12-17T03:12:10.180Z,1007.57
2018-12-17T03:13:10.172Z,1007.58
2018-12-17T03:14:10.143Z,1007.59
2018-12-17T03:15:10.123Z,1007.59
2018-12-17T03:16:10.109Z,1007.56
2018-12-17T03:17:10.098Z,1007.59
2018-12-17T03:18:10.122Z,1007.53
2018-12-17T03:19:10.098Z,1007.52
2018-12-17T03:20:10.066Z,1007.51
2018-12-17T03:21:10.055Z,1007.54
2018-12-17T03:22:10.042Z,1007.56
2018-12-17T03:23:10.032Z,1007.63
2018-12-17T03:24:10.050Z,1007.59
2018-12-17T03:25:10.008Z,1007.64
2018-12-17T03:26:10.001Z,1007.64
2018-12-17T03:27:09.989Z,1007.64
2018-12-17T03:28:09.983Z,1007.66
2018-12-17T03:29:09.992Z,1007.66
2018-12-17T03:30:09.954Z,1007.66
2018-12-17T03:31:09.946Z,1007.63
2018-12-17T03:32:09.942Z,1007.65
2018-12-17T03:33:09.933Z,1007.69
2018-12-17T03:34:09.944Z,1007.72
2018-12-17T03:35:09.900Z,1007.72
2018-12-17T03:36:09.911Z,1007.68
2018-12-17T03:37:09.916Z,1007.68
2018-12-17T03:38:09.877Z,1007.67
2018-12-17T03:39:09.865Z,1007.66
2018-12-17T03:40:09.873Z,1007.64
2018-12-17T03:41:09.838Z,1007.65
2018-12-17T03:42:09.820Z,1007.67
2018-12-17T03:43:09.825Z,1007.68
2018-12-17T03:44:09.805Z,1007.68
2018-12-17T03:45:09.818Z,1007.69
2018-12-17T03:46:09.775Z,1007.68
2018-12-17T03:47:09.766Z,1007.72
2018-12-17T03:48:09.790Z,1007.72
2018-12-17T03:49:09.744Z,1007.66
2018-12-17T03:50:09.757Z,1007.71
2018-12-17T03:51:09.721Z,1007.69
2018-12-17T03:52:09.713Z,1007.72
2018-12-17T03:53:09.702Z,1007.75
2018-12-17T03:54:09.689Z,1007.77
2018-12-17T03:55:09.716Z,1007.79
2018-12-17T03:56:09.667Z,1007.81
2018-12-17T03:57:09.689Z,1007.81
2018-12-17T03:58:09.646Z,1007.87
2018-12-17T03:59:09.637Z,1007.84
2018-12-17T04:00:09.652Z,1007.83
2018-12-17T04:01:09.622Z,1007.87
2018-12-17T04:02:09.637Z,1007.86
2018-12-17T04:03:09.598Z,1007.84
2018-12-17T04:04:09.581Z,1007.86
2018-12-17T04:05:09.573Z,1007.86
2018-12-17T04:06:09.593Z,1007.86
2018-12-17T04:07:09.560Z,1007.81
2018-12-17T04:08:09.539Z,1007.86
2018-12-17T04:09:09.526Z,1007.85
2018-12-17T04:10:09.517Z,1007.85
2018-12-17T04:11:09.526Z,1007.83
2018-12-17T04:12:09.496Z,1007.84
2018-12-17T04:13:09.492Z,1007.86
2018-12-17T04:14:09.475Z,1007.87
2018-12-17T04:15:09.460Z,1007.86
2018-12-17T04:16:09.483Z,1007.87
2018-12-17T04:17:09.440Z,1007.83
2018-12-17T04:18:09.431Z,1007.80
2018-12-17T04:19:09.414Z,1007.82
2018-12-17T04:20:09.401Z,1007.84
2018-12-17T04:21:09.418Z,1007.83
2018-12-17T04:22:09.390Z,1007.89
2018-12-17T04:23:09.379Z,1007.86
2018-12-17T04:24:09.363Z,1007.84
2018-12-17T04:26:10.501Z,1007.82
2018-12-17T04:27:09.356Z,1007.80
2018-12-17T04:28:09.315Z,1007.78
2018-12-17T04:29:09.313Z,1007.80
2018-12-17T04:30:09.294Z,1007.74
2018-12-17T04:31:09.283Z,1007.76
2018-12-17T04:32:09.383Z,1007.79
2018-12-17T04:33:09.261Z,1007.78
2018-12-17T04:34:09.252Z,1007.81
2018-12-17T04:35:09.236Z,1007.82
2018-12-17T04:36:09.239Z,1007.83
2018-12-17T04:37:09.242Z,1007.81
2018-12-17T04:38:09.223Z,1007.83
2018-12-17T04:39:09.196Z,1007.85
2018-12-17T04:40:09.282Z,1007.85
2018-12-17T04:41:09.176Z,1007.86
2018-12-17T04:42:09.214Z,1007.94
2018-12-17T04:43:09.155Z,1007.94
2018-12-17T04:44:09.189Z,1007.95
2018-12-17T04:45:09.129Z,1007.93
2018-12-17T04:46:09.160Z,1007.95
2018-12-17T04:47:09.136Z,1007.95
2018-12-17T04:48:09.118Z,1007.97
2018-12-17T04:49:09.090Z,1008.00
2018-12-17T04:50:09.077Z,1008.03
2018-12-17T04:51:09.065Z,1008.06
2018-12-17T04:52:09.078Z,1008.04
2018-12-17T04:53:09.048Z,1008.03
2018-12-17T04:54:09.057Z,1008.02
2018-12-17T04:55:09.022Z,1008.08
2018-12-17T04:56:09.007Z,1008.04
2018-12-17T04:57:09.033Z,1007.97
2018-12-17T04:58:09.018Z,1007.98
2018-12-17T04:59:14.579Z,1008.01
2018-12-17T05:00:09.963Z,1008.00
2018-12-17T05:01:08.960Z,1007.98
2018-12-17T05:02:08.943Z,1007.99
2018-12-17T05:03:08.953Z,1008.02
2018-12-17T05:04:08.945Z,1007.98
2018-12-17T05:05:08.919Z,1007.99
2018-12-17T05:06:08.907Z,1008.03
2018-12-17T05:07:08.885Z,1008.05
2018-12-17T05:08:08.911Z,1008.05
2018-12-17T05:09:08.896Z,1008.09
2018-12-17T05:10:08.861Z,1008.07
2018-12-17T05:11:08.850Z,1008.07
2018-12-17T05:12:08.834Z,1008.03
2018-12-17T05:13:08.822Z,1008.04
2018-12-17T05:14:08.829Z,1008.05
2018-12-17T05:15:08.834Z,1008.07
2018-12-17T05:16:08.795Z,1008.06
2018-12-17T05:17:08.781Z,1008.09
2018-12-17T05:18:08.769Z,1008.11
2018-12-17T05:19:08.788Z,1008.14
2018-12-17T05:20:08.742Z,1008.17
2018-12-17T05:21:08.741Z,1008.13
2018-12-17T05:22:08.740Z,1008.14
2018-12-17T05:23:08.716Z,1008.13
2018-12-17T05:24:08.724Z,1008.12
2018-12-17T05:25:08.694Z,1008.17
2018-12-17T05:26:08.689Z,1008.12
2018-12-17T05:27:08.671Z,1008.14
2018-12-17T05:28:08.657Z,1008.16
2018-12-17T05:29:08.689Z,1008.17
2018-12-17T05:30:08.665Z,1008.21
2018-12-17T05:31:08.630Z,1008.20
2018-12-17T05:32:08.621Z,1008.22
2018-12-17T05:33:08.616Z,1008.22
2018-12-17T05:34:08.588Z,1008.28
2018-12-17T05:35:08.626Z,1008.29
2018-12-17T05:36:08.568Z,1008.28
2018-12-17T05:37:08.558Z,1008.30
2018-12-17T05:38:08.550Z,1008.27
2018-12-17T05:39:08.556Z,1008.35
2018-12-17T05:40:08.552Z,1008.34
2018-12-17T05:41:08.519Z,1008.31
2018-12-17T05:42:08.498Z,1008.32
2018-12-17T05:43:08.491Z,1008.31
2018-12-17T05:44:08.485Z,1008.29
2018-12-17T05:45:08.497Z,1008.32
2018-12-17T05:46:08.463Z,1008.32
2018-12-17T05:47:08.449Z,1008.34
2018-12-17T05:48:08.440Z,1008.33
2018-12-17T05:49:08.422Z,1008.36
2018-12-17T05:50:08.447Z,1008.37
2018-12-17T05:51:08.425Z,1008.30
2018-12-17T05:52:08.402Z,1008.35
2018-12-17T05:53:08.389Z,1008.41
2018-12-17T05:54:08.367Z,1008.38
2018-12-17T05:55:08.387Z,1008.42
2018-12-17T05:56:08.351Z,1008.42
2018-12-17T05:57:08.341Z,1008.45
2018-12-17T05:58:08.327Z,1008.42
2018-12-17T05:59:08.322Z,1008.45
2018-12-17T06:00:08.337Z,1008.45
2018-12-17T06:01:08.332Z,1008.44
2018-12-17T06:02:08.287Z,1008.43
2018-12-17T06:03:08.268Z,1008.47
2018-12-17T06:04:08.281Z,1008.41
2018-12-17T06:05:08.279Z,1008.41
2018-12-17T06:06:08.246Z,1008.43
2018-12-17T06:07:08.233Z,1008.44
2018-12-17T06:08:08.223Z,1008.43
2018-12-17T06:09:08.209Z,1008.44
2018-12-17T06:10:08.220Z,1008.47
2018-12-17T06:11:08.200Z,1008.48
2018-12-17T06:12:08.175Z,1008.46
2018-12-17T06:13:08.166Z,1008.46
2018-12-17T06:14:08.147Z,1008.45
2018-12-17T06:15:08.143Z,1008.47
2018-12-17T06:16:08.167Z,1008.49
2018-12-17T06:17:08.126Z,1008.50
2018-12-17T06:18:08.111Z,1008.52
2018-12-17T06:19:08.096Z,1008.56
2018-12-17T06:20:08.087Z,1008.55
2018-12-17T06:21:08.097Z,1008.57
2018-12-17T06:22:08.063Z,1008.59
2018-12-17T06:23:08.049Z,1008.58
2018-12-17T06:24:08.043Z,1008.56
2018-12-17T06:25:08.038Z,1008.58
2018-12-17T06:26:08.046Z,1008.57
2018-12-17T06:27:08.010Z,1008.60
2018-12-17T06:28:07.994Z,1008.64
2018-12-17T06:29:07.982Z,1008.58
2018-12-17T06:30:07.982Z,1008.62
2018-12-17T06:31:07.992Z,1008.61
2018-12-17T06:32:07.953Z,1008.68
2018-12-17T06:33:07.949Z,1008.70
2018-12-17T06:34:07.926Z,1008.69
2018-12-17T06:35:07.918Z,1008.66
2018-12-17T06:36:07.952Z,1008.69
2018-12-17T06:37:07.943Z,1008.71
2018-12-17T06:38:07.881Z,1008.67
2018-12-17T06:39:07.871Z,1008.69
2018-12-17T06:40:10.412Z,1008.69
2018-12-17T06:41:07.876Z,1008.68
2018-12-17T06:42:07.878Z,1008.69
2018-12-17T06:43:07.829Z,1008.71
2018-12-17T06:44:07.831Z,1008.70
2018-12-17T06:45:07.811Z,1008.65
2018-12-17T06:46:07.799Z,1008.64
2018-12-17T06:47:07.825Z,1008.65
2018-12-17T06:48:07.777Z,1008.70
2018-12-17T06:49:07.765Z,1008.66
2018-12-17T06:50:07.766Z,1008.68
2018-12-17T06:51:07.871Z,1008.70
2018-12-17T06:52:07.774Z,1008.73
2018-12-17T06:53:07.733Z,1008.74
2018-12-17T06:54:07.709Z,1008.78
2018-12-17T06:55:07.703Z,1008.78
2018-12-17T06:56:07.688Z,1008.79
2018-12-17T06:57:07.709Z,1008.82
2018-12-17T06:58:07.683Z,1008.88
2018-12-17T06:59:07.652Z,1008.86
2018-12-17T07:00:07.641Z,1008.90
2018-12-17T07:01:07.633Z,1008.89
2018-12-17T07:02:07.642Z,1008.93
2018-12-17T07:03:07.639Z,1008.92
2018-12-17T07:04:07.603Z,1008.90
2018-12-17T07:05:07.599Z,1008.93
2018-12-17T07:06:07.582Z,1008.97
2018-12-17T07:07:07.592Z,1008.97
2018-12-17T07:08:07.583Z,1008.95
2018-12-17T07:09:07.549Z,1009.00
2018-12-17T07:10:07.530Z,1008.97
2018-12-17T07:11:07.530Z,1009.00
2018-12-17T07:12:07.538Z,1008.98
2018-12-17T07:13:07.499Z,1009.01
2018-12-17T07:14:07.490Z,1008.98
2018-12-17T07:15:07.485Z,1008.96
2018-12-17T07:16:07.465Z,1008.96
2018-12-17T07:17:07.573Z,1008.92
2018-12-17T07:18:07.468Z,1008.94
2018-12-17T07:19:07.466Z,1008.99
2018-12-17T07:20:07.428Z,1008.99
2018-12-17T07:21:07.417Z,1009.03
2018-12-17T07:22:07.407Z,1009.03
2018-12-17T07:23:07.419Z,1008.99
2018-12-17T07:24:07.377Z,1009.04
2018-12-17T07:25:07.372Z,1009.07
2018-12-17T07:26:07.368Z,1009.00
2018-12-17T07:27:07.351Z,1009.04
2018-12-17T07:28:07.368Z,1009.05
2018-12-17T07:29:07.323Z,1009.05
2018-12-17T07:30:07.313Z,1009.08
2018-12-17T07:31:07.302Z,1009.09
2018-12-17T07:32:07.318Z,1009.10
2018-12-17T07:33:07.281Z,1009.12
2018-12-17T07:34:07.316Z,1009.10
2018-12-17T07:35:07.265Z,1009.09
2018-12-17T07:36:07.249Z,1009.13
2018-12-17T07:37:07.254Z,1009.14
2018-12-17T07:38:07.256Z,1009.12
2018-12-17T07:39:07.243Z,1009.14
2018-12-17T07:40:07.202Z,1009.16
2018-12-17T07:41:07.203Z,1009.17
2018-12-17T07:42:07.185Z,1009.17
2018-12-17T07:43:07.202Z,1009.19
2018-12-17T07:44:07.168Z,1009.16
2018-12-17T07:45:07.157Z,1009.18
2018-12-17T07:46:07.142Z,1009.22
2018-12-17T07:47:07.128Z,1009.24
2018-12-17T07:48:07.155Z,1009.20
2018-12-17T07:49:07.109Z,1009.20
2018-12-17T07:50:07.112Z,1009.23
2018-12-17T07:51:07.081Z,1009.20
2018-12-17T07:52:07.078Z,1009.22
2018-12-17T07:53:07.112Z,1009.23
2018-12-17T07:54:07.048Z,1009.25
2018-12-17T07:55:07.053Z,1009.24
2018-12-17T07:56:07.031Z,1009.28
2018-12-17T07:57:07.019Z,1009.28
2018-12-17T07:58:07.003Z,1009.35
2018-12-17T07:59:07.032Z,1009.34
2018-12-17T08:00:07.007Z,1009.31
2018-12-17T08:01:06.979Z,1009.36
2018-12-17T08:02:06.970Z,1009.39
2018-12-17T08:03:06.949Z,1009.38
2018-12-17T08:04:07.109Z,1009.36
2018-12-17T08:05:06.954Z,1009.37
2018-12-17T08:06:06.920Z,1009.40
2018-12-17T08:07:06.906Z,1009.40
2018-12-17T08:08:06.898Z,1009.45
2018-12-17T08:09:06.921Z,1009.48
2018-12-17T08:10:06.876Z,1009.44
2018-12-17T08:11:06.868Z,1009.47
2018-12-17T08:12:06.855Z,1009.46
2018-12-17T08:13:06.846Z,1009.44
2018-12-17T08:14:06.863Z,1009.47
2018-12-17T08:15:06.820Z,1009.45
2018-12-17T08:16:06.899Z,1009.43
2018-12-17T08:17:06.800Z,1009.43
2018-12-17T08:18:06.809Z,1009.41
2018-12-17T08:19:06.808Z,1009.45
2018-12-17T08:20:06.794Z,1009.44
2018-12-17T08:21:06.758Z,1009.41
2018-12-17T08:22:06.744Z,1009.44
2018-12-17T08:23:06.731Z,1009.42
2018-12-17T08:24:06.720Z,1009.45
2018-12-17T08:25:06.749Z,1009.49
2018-12-17T08:26:06.702Z,1009.47
2018-12-17T08:27:06.698Z,1009.50
2018-12-17T08:28:06.680Z,1009.50
2018-12-17T08:29:06.671Z,1009.52
2018-12-17T08:30:06.692Z,1009.50
2018-12-17T08:31:06.655Z,1009.51
2018-12-17T08:32:06.635Z,1009.53
2018-12-17T08:33:06.623Z,1009.53
2018-12-17T08:34:06.637Z,1009.55
2018-12-17T08:35:06.608Z,1009.55
2018-12-17T08:36:06.754Z,1009.51
2018-12-17T08:37:06.579Z,1009.55
2018-12-17T08:38:06.569Z,1009.57
2018-12-17T08:39:06.558Z,1009.59
2018-12-17T08:40:06.543Z,1009.59
2018-12-17T08:41:06.572Z,1009.61
2018-12-17T08:42:06.540Z,1009.59
2018-12-17T08:43:06.526Z,1009.59
2018-12-17T08:44:06.506Z,1009.62
2018-12-17T08:45:06.489Z,1009.65
2018-12-17T08:46:06.510Z,1009.64
2018-12-17T08:47:06.476Z,1009.68
2018-12-17T08:48:06.459Z,1009.65
2018-12-17T08:49:06.446Z,1009.68
2018-12-17T08:50:06.459Z,1009.64
2018-12-17T08:51:06.453Z,1009.68
2018-12-17T08:52:06.418Z,1009.68
2018-12-17T08:53:06.410Z,1009.67
2018-12-17T08:54:06.401Z,1009.70
2018-12-17T08:55:06.383Z,1009.66
2018-12-17T08:56:06.397Z,1009.69
2018-12-17T08:57:06.365Z,1009.70
2018-12-17T08:58:06.357Z,1009.72
2018-12-17T08:59:06.350Z,1009.70
2018-12-17T09:00:11.024Z,1009.70
2018-12-17T09:01:07.347Z,1009.73
2018-12-17T09:02:06.343Z,1009.72
2018-12-17T09:03:06.297Z,1009.74
2018-12-17T09:04:06.287Z,1009.75
2018-12-17T09:05:06.278Z,1009.76
2018-12-17T09:06:06.289Z,1009.76
2018-12-17T09:07:06.261Z,1009.76
2018-12-17T09:08:06.270Z,1009.78
2018-12-17T09:09:06.268Z,1009.73
2018-12-17T09:10:06.224Z,1009.75
2018-12-17T09:11:06.212Z,1009.76
2018-12-17T09:12:06.234Z,1009.81
2018-12-17T09:13:06.198Z,1009.84
2018-12-17T09:14:06.172Z,1009.80
2018-12-17T09:15:06.170Z,1009.80
2018-12-17T09:16:06.160Z,1009.87
2018-12-17T09:17:06.203Z,1009.79
2018-12-17T09:18:07.278Z,1009.78
2018-12-17T09:19:06.124Z,1009.77
2018-12-17T09:20:06.110Z,1009.76
2018-12-17T09:21:06.107Z,1009.79
2018-12-17T09:22:06.093Z,1009.83
2018-12-17T09:23:06.101Z,1009.83
2018-12-17T09:24:06.070Z,1009.85
2018-12-17T09:25:06.053Z,1009.90
2018-12-17T09:26:06.045Z,1009.87
2018-12-17T09:27:06.045Z,1009.89
2018-12-17T09:28:06.057Z,1009.92
2018-12-17T09:29:06.013Z,1009.93
2018-12-17T09:30:06.018Z,1009.94
2018-12-17T09:31:05.998Z,1009.96
2018-12-17T09:32:05.991Z,1009.95
2018-12-17T09:33:06.008Z,1009.95
2018-12-17T09:34:05.966Z,1009.96
2018-12-17T09:35:05.941Z,1009.97
2018-12-17T09:36:05.935Z,1009.99
2018-12-17T09:37:05.934Z,1009.98
2018-12-17T09:38:05.945Z,1010.02
2018-12-17T09:39:05.902Z,1010.03
2018-12-17T09:40:05.886Z,1010.02
2018-12-17T09:41:05.877Z,1010.01
2018-12-17T09:42:05.868Z,1010.00
2018-12-17T09:43:05.861Z,1010.02
2018-12-17T09:44:05.884Z,1010.03
2018-12-17T09:45:05.838Z,1010.04
2018-12-17T09:46:05.825Z,1010.08
2018-12-17T09:47:05.872Z,1010.12
2018-12-17T09:48:05.802Z,1010.12
2018-12-17T09:49:05.819Z,1010.15
2018-12-17T09:50:05.777Z,1010.16
2018-12-17T09:51:05.772Z,1010.19
2018-12-17T09:52:05.762Z,1010.16
2018-12-17T09:53:05.751Z,1010.19
2018-12-17T09:54:05.759Z,1010.18
2018-12-17T09:55:05.728Z,1010.24
2018-12-17T09:56:05.717Z,1010.21
2018-12-17T09:57:05.703Z,1010.22
2018-12-17T09:58:05.765Z,1010.17
2018-12-17T09:59:05.752Z,1010.18
2018-12-17T10:00:05.687Z,1010.23
2018-12-17T10:01:05.721Z,1010.17
2018-12-17T10:02:05.670Z,1010.20
2018-12-17T10:03:05.670Z,1010.19
2018-12-17T10:04:05.665Z,1010.19
2018-12-17T10:05:05.619Z,1010.21
2018-12-17T10:06:05.621Z,1010.19
2018-12-17T10:07:05.595Z,1010.16
2018-12-17T10:08:05.586Z,1010.19
2018-12-17T10:09:05.614Z,1010.23
2018-12-17T10:10:05.602Z,1010.18
2018-12-17T10:11:05.559Z,1010.19
2018-12-17T10:12:05.541Z,1010.21
2018-12-17T10:13:05.533Z,1010.17
2018-12-17T10:14:05.549Z,1010.19
2018-12-17T10:15:05.537Z,1010.15
2018-12-17T10:16:05.504Z,1010.18
2018-12-17T10:17:05.491Z,1010.19
2018-12-17T10:18:05.474Z,1010.13
2018-12-17T10:19:05.479Z,1010.12
2018-12-17T10:20:05.479Z,1010.08
2018-12-17T10:21:05.453Z,1010.13
2018-12-17T10:22:05.439Z,1010.03
2018-12-17T10:23:05.423Z,1010.04
2018-12-17T10:24:05.418Z,1010.03
2018-12-17T10:25:05.436Z,1010.03
2018-12-17T10:26:05.388Z,1010.00
2018-12-17T10:27:05.388Z,1010.00
2018-12-17T10:28:05.379Z,1010.01
2018-12-17T10:29:05.365Z,1009.98
2018-12-17T10:30:05.402Z,1010.01
2018-12-17T10:31:05.337Z,1010.00
2018-12-17T10:32:05.330Z,1009.98
2018-12-17T10:33:05.314Z,1010.01
2018-12-17T10:34:05.309Z,1010.00
2018-12-17T10:35:05.294Z,1009.99
2018-12-17T10:36:05.323Z,1010.00
2018-12-17T10:37:05.270Z,1009.95
2018-12-17T10:38:05.261Z,1009.99
2018-12-17T10:39:05.246Z,1009.97
2018-12-17T10:40:05.262Z,1010.01
2018-12-17T10:41:05.228Z,1010.00
2018-12-17T10:42:05.217Z,1009.99
2018-12-17T10:43:05.198Z,1009.93
2018-12-17T10:44:05.194Z,1009.99
2018-12-17T10:45:05.219Z,1009.94
2018-12-17T10:46:05.171Z,1009.94
2018-12-17T10:47:05.161Z,1009.94
2018-12-17T10:48:05.212Z,1009.94
2018-12-17T10:49:05.138Z,1009.99
2018-12-17T10:50:05.134Z,1009.99
2018-12-17T10:51:05.142Z,1009.96
2018-12-17T10:52:05.107Z,1009.95
2018-12-17T10:53:05.094Z,1010.00
2018-12-17T10:54:05.086Z,1010.00
2018-12-17T10:55:05.066Z,1009.93
2018-12-17T10:56:05.141Z,1009.97
2018-12-17T10:57:05.054Z,1009.97
2018-12-17T10:58:05.039Z,1010.00
2018-12-17T10:59:05.028Z,1010.00
2018-12-17T11:00:05.014Z,1009.98
2018-12-17T11:01:05.033Z,1009.98
2018-12-17T11:02:04.992Z,1009.97
2018-12-17T11:03:04.987Z,1009.94
2018-12-17T11:04:04.984Z,1009.96
2018-12-17T11:05:04.959Z,1010.00
2018-12-17T11:06:05.012Z,1010.00
2018-12-17T11:07:04.941Z,1010.01
2018-12-17T11:08:04.930Z,1010.02
2018-12-17T11:09:04.928Z,1010.03
2018-12-17T11:10:04.912Z,1010.07
2018-12-17T11:11:04.924Z,1010.03
2018-12-17T11:12:04.913Z,1010.03
2018-12-17T11:13:04.884Z,1010.01
2018-12-17T11:14:04.875Z,1010.06
2018-12-17T11:15:04.854Z,1010.02
2018-12-17T11:16:04.881Z,1010.04
2018-12-17T11:17:04.845Z,1010.07
2018-12-17T11:18:04.833Z,1010.05
2018-12-17T11:19:04.827Z,1010.03
2018-12-17T11:20:04.816Z,1010.00
2018-12-17T11:21:04.829Z,1010.05
2018-12-17T11:22:04.786Z,1010.04
2018-12-17T11:23:04.776Z,1010.05
2018-12-17T11:24:04.772Z,1010.03
2018-12-17T11:25:04.754Z,1010.02
2018-12-17T11:26:04.786Z,1010.07
2018-12-17T11:27:04.768Z,1010.07
2018-12-17T11:28:04.733Z,1010.10
2018-12-17T11:29:04.738Z,1010.04
2018-12-17T11:30:04.716Z,1010.05
2018-12-17T11:31:04.705Z,1010.03
2018-12-17T11:32:11.488Z,1010.04
2018-12-17T11:33:05.668Z,1010.01
2018-12-17T11:34:04.671Z,1010.05
2018-12-17T11:35:04.784Z,1010.04
2018-12-17T11:36:04.646Z,1010.03
2018-12-17T11:37:04.873Z,1010.00
2018-12-17T11:38:04.626Z,1010.00
2018-12-17T11:39:04.607Z,1010.04
2018-12-17T11:40:04.601Z,1010.02
2018-12-17T11:41:04.596Z,1010.02
2018-12-17T11:42:04.619Z,1010.05
2018-12-17T11:43:04.580Z,1010.07
2018-12-17T11:44:04.558Z,1009.99
2018-12-17T11:45:04.551Z,1010.03
2018-12-17T11:46:04.532Z,1010.05
2018-12-17T11:47:04.526Z,1010.03
2018-12-17T11:48:04.535Z,1010.04
